createdAt,value
2018-08-06T00:02:20.320Z,98873.45
2018-08-06T00:04:48.417Z,98872.50
2018-08-06T00:07:16.644Z,98870.12
2018-08-06T00:09:44.940Z,98873.00
2018-08-06T00:12:13.041Z,98874.91
2018-08-06T00:14:41.198Z,98876.08
2018-08-06T00:17:09.517Z,98882.59
2018-08-06T00:19:37.799Z,98876.33
2018-08-06T00:22:06.175Z,98880.53
2018-08-06T00:24:34.295Z,98877.02
2018-08-06T00:27:02.428Z,98872.97
2018-08-06T00:29:31.549Z,98879.77
2018-08-06T00:31:59.688Z,98877.76
2018-08-06T00:34:27.815Z,98877.34
2018-08-06T00:36:56.031Z,98878.27
2018-08-06T00:39:24.151Z,98876.89
2018-08-06T00:41:52.246Z,98871.50
2018-08-06T00:44:20.348Z,98862.80
2018-08-06T00:46:48.454Z,98865.16
2018-08-06T00:49:16.606Z,98860.85
2018-08-06T00:51:44.691Z,98853.75
2018-08-06T00:54:12.801Z,98863.16
2018-08-06T00:56:40.905Z,98855.95
2018-08-06T00:59:09.029Z,98855.59
2018-08-06T01:01:37.499Z,98855.47
2018-08-06T01:04:05.725Z,98856.31
2018-08-06T01:06:33.814Z,98848.57
2018-08-06T01:09:01.927Z,98849.95
2018-08-06T01:11:30.021Z,98848.94
2018-08-06T01:13:58.108Z,98851.13
2018-08-06T01:16:26.224Z,98855.55
2018-08-06T01:18:54.911Z,98844.25
2018-08-06T01:21:23.008Z,98849.56
2018-08-06T01:23:51.091Z,98850.38
2018-08-06T01:26:19.206Z,98851.47
2018-08-06T01:28:47.363Z,98854.14
2018-08-06T01:34:08.504Z,98853.24
2018-08-06T01:36:36.851Z,98844.80
2018-08-06T01:39:08.066Z,98849.61
2018-08-06T01:41:36.314Z,98841.91
2018-08-06T01:44:04.456Z,98843.09
2018-08-06T01:46:32.627Z,98842.87
2018-08-06T01:49:00.719Z,98845.41
2018-08-06T01:51:28.811Z,98844.58
2018-08-06T01:53:56.948Z,98840.64
2018-08-06T01:56:25.035Z,98834.87
2018-08-06T01:58:53.115Z,98836.55
2018-08-06T02:01:21.245Z,98830.27
2018-08-06T02:03:49.338Z,98830.97
2018-08-06T02:06:17.450Z,98827.84
2018-08-06T02:08:45.578Z,98827.28
2018-08-06T02:11:15.424Z,98825.50
2018-08-06T02:16:45.631Z,98820.78
2018-08-06T02:19:33.042Z,98811.67
2018-08-06T02:22:20.539Z,98813.59
2018-08-06T02:24:56.160Z,98810.72
2018-08-06T02:27:31.409Z,98811.14
2018-08-06T02:32:58.373Z,98813.80
2018-08-06T02:35:33.379Z,98813.33
2018-08-06T02:38:08.609Z,98814.73
2018-08-06T02:40:49.413Z,98813.35
2018-08-06T02:43:26.843Z,98812.46
2018-08-06T02:46:00.537Z,98804.40
2018-08-06T02:48:35.985Z,98803.08
2018-08-06T02:51:08.866Z,98804.94
2018-08-06T02:56:38.373Z,98802.27
2018-08-06T02:59:10.844Z,98795.44
2018-08-06T03:01:48.484Z,98795.09
2018-08-06T03:04:30.882Z,98798.29
2018-08-06T03:07:02.895Z,98791.92
2018-08-06T03:09:37.158Z,98795.36
2018-08-06T03:12:10.828Z,98794.33
2018-08-06T03:14:44.242Z,98789.17
2018-08-06T03:17:31.268Z,98786.99
2018-08-06T03:20:04.215Z,98780.78
2018-08-06T03:22:40.607Z,98786.12
2018-08-06T03:25:18.929Z,98788.45
2018-08-06T03:30:54.981Z,98788.98
2018-08-06T03:33:39.669Z,98788.51
2018-08-06T03:36:31.080Z,98782.70
2018-08-06T03:42:05.504Z,98791.41
2018-08-06T03:44:37.653Z,98797.29
2018-08-06T03:47:09.262Z,98801.15
2018-08-06T03:49:40.564Z,98799.04
2018-08-06T03:52:14.104Z,98803.34
2018-08-06T03:55:19.860Z,98805.16
2018-08-06T03:57:52.084Z,98805.35
2018-08-06T04:00:24.074Z,98805.03
2018-08-06T04:03:11.135Z,98808.98
2018-08-06T04:05:43.193Z,98804.14
2018-08-06T04:08:18.630Z,98804.11
2018-08-06T04:10:56.063Z,98803.61
2018-08-06T04:13:49.952Z,98807.42
2018-08-06T04:19:24.114Z,98806.18
2018-08-06T04:21:56.883Z,98809.45
2018-08-06T04:24:35.174Z,98816.09
2018-08-06T04:27:07.468Z,98812.96
2018-08-06T04:29:39.677Z,98817.64
2018-08-06T04:44:25.175Z,98829.50
2018-08-06T04:46:57.492Z,98825.30
2018-08-06T04:49:29.517Z,98824.94
2018-08-06T04:52:04.262Z,98817.59
2018-08-06T04:54:36.326Z,98815.33
2018-08-06T04:57:09.135Z,98823.00
2018-08-06T05:00:00.554Z,98819.86
2018-08-06T05:02:34.277Z,98817.83
2018-08-06T05:05:16.910Z,98818.20
2018-08-06T05:07:50.186Z,98817.70
2018-08-06T05:10:22.613Z,98817.67
2018-08-06T05:12:54.073Z,98824.32
2018-08-06T05:15:26.949Z,98828.16
2018-08-06T05:18:10.072Z,98826.63
2018-08-06T05:20:43.966Z,98825.23
2018-08-06T05:23:16.088Z,98829.00
2018-08-06T05:28:34.193Z,98829.16
2018-08-06T05:31:07.881Z,98830.62
2018-08-06T05:33:38.974Z,98826.59
2018-08-06T05:36:21.734Z,98823.88
2018-08-06T05:39:00.471Z,98834.87
2018-08-06T05:41:33.734Z,98830.60
2018-08-06T05:47:04.530Z,98819.32
2018-08-06T05:49:37.406Z,98822.81
2018-08-06T05:52:10.645Z,98810.94
2018-08-06T05:54:43.569Z,98813.22
2018-08-06T05:57:17.118Z,98808.92
2018-08-06T06:00:14.506Z,98810.16
2018-08-06T06:02:47.187Z,98816.44
2018-08-06T06:05:19.384Z,98819.72
2018-08-06T06:07:51.726Z,98814.98
2018-08-06T06:13:39.575Z,98814.16
2018-08-06T06:16:12.595Z,98819.48
2018-08-06T06:21:26.155Z,98825.62
2018-08-06T06:23:59.554Z,98821.50
2018-08-06T06:26:41.116Z,98827.14
2018-08-06T06:29:13.765Z,98817.41
2018-08-06T06:31:47.592Z,98818.63
2018-08-06T06:34:20.887Z,98807.98
2018-08-06T06:36:53.420Z,98816.32
2018-08-06T06:39:36.354Z,98826.55
2018-08-06T06:42:08.833Z,98817.77
2018-08-06T06:47:39.447Z,98817.17
2018-08-06T06:50:11.587Z,98817.41
2018-08-06T06:52:58.773Z,98813.80
2018-08-06T06:55:31.182Z,98815.97
2018-08-06T06:58:03.565Z,98815.91
2018-08-06T07:03:42.679Z,98806.39
2018-08-06T07:06:15.289Z,98802.75
2018-08-06T07:11:48.795Z,98806.79
2018-08-06T07:14:21.315Z,98798.94
2018-08-06T07:17:08.333Z,98799.56
2018-08-06T07:19:40.327Z,98794.48
2018-08-06T07:22:22.566Z,98804.36
2018-08-06T07:25:11.269Z,98802.08
2018-08-06T07:27:44.565Z,98791.75
2018-08-06T07:30:19.671Z,98794.16
2018-08-06T07:32:51.810Z,98795.28
2018-08-06T07:35:23.895Z,98791.28
2018-08-06T07:37:55.995Z,98792.59
2018-08-06T07:40:27.455Z,98787.42
2018-08-06T07:45:44.176Z,98787.47
2018-08-06T07:51:08.888Z,98781.29
2018-08-06T07:53:41.581Z,98779.31
2018-08-06T07:56:13.641Z,98782.33
2018-08-06T07:58:51.741Z,98777.71
2018-08-06T08:01:24.367Z,98777.16
2018-08-06T08:03:56.885Z,98772.23
2018-08-06T08:06:29.651Z,98772.70
2018-08-06T08:09:01.741Z,98766.23
2018-08-06T08:14:14.040Z,98774.00
2018-08-06T08:16:47.329Z,98775.92
2018-08-06T08:19:21.264Z,98770.09
2018-08-06T08:21:54.118Z,98761.40
2018-08-06T08:24:26.275Z,98766.28
2018-08-06T08:26:57.126Z,98772.78
2018-08-06T08:29:29.435Z,98769.48
2018-08-06T08:32:01.555Z,98767.84
2018-08-06T08:34:32.981Z,98762.82
2018-08-06T08:37:05.333Z,98754.45
2018-08-06T08:39:37.203Z,98759.56
2018-08-06T08:42:09.621Z,98764.16
2018-08-06T08:44:41.938Z,98761.83
2018-08-06T08:47:14.713Z,98760.24
2018-08-06T08:49:47.149Z,98755.58
2018-08-06T08:52:24.921Z,98759.91
2018-08-06T08:54:58.416Z,98751.09
2018-08-06T08:57:30.139Z,98740.02
2018-08-06T09:00:02.635Z,98743.32
2018-08-06T09:02:33.639Z,98743.55
2018-08-06T09:05:07.066Z,98738.27
2018-08-06T09:07:39.443Z,98737.34
2018-08-06T09:10:14.978Z,98733.81
2018-08-06T09:12:47.330Z,98736.66
2018-08-06T09:15:22.176Z,98731.86
2018-08-06T09:17:55.329Z,98722.82
2018-08-06T09:20:27.836Z,98728.29
2018-08-06T09:26:21.860Z,98722.97
2018-08-06T09:28:54.373Z,98721.41
2018-08-06T09:31:26.521Z,98719.87
2018-08-06T09:37:16.034Z,98715.08
2018-08-06T09:39:49.508Z,98710.36
2018-08-06T09:42:22.137Z,98710.67
2018-08-06T09:44:54.935Z,98710.43
2018-08-06T09:47:26.896Z,98702.92
2018-08-06T09:49:59.708Z,98697.80
2018-08-06T09:52:31.541Z,98698.90
2018-08-06T09:55:03.619Z,98695.94
2018-08-06T09:57:35.782Z,98691.69
2018-08-06T10:01:16.524Z,98690.08
2018-08-06T10:04:00.623Z,98686.53
2018-08-06T10:06:28.839Z,98692.63
2018-08-06T10:08:56.868Z,98691.27
2018-08-06T10:11:24.978Z,98677.76
2018-08-06T10:13:53.076Z,98676.52
2018-08-06T10:16:21.459Z,98668.98
2018-08-06T10:18:49.627Z,98670.48
2018-08-06T10:21:17.671Z,98666.31
2018-08-06T10:23:45.779Z,98671.11
2018-08-06T10:26:13.867Z,98663.56
2018-08-06T10:28:41.987Z,98663.32
2018-08-06T10:31:10.067Z,98654.27
2018-08-06T10:33:38.474Z,98653.59
2018-08-06T10:36:06.555Z,98653.61
2018-08-06T10:38:34.635Z,98654.06
2018-08-06T10:41:02.733Z,98645.84
2018-08-06T10:43:30.834Z,98655.19
2018-08-06T10:45:58.912Z,98645.09
2018-08-06T10:48:27.106Z,98641.57
2018-08-06T10:50:55.123Z,98631.70
2018-08-06T10:53:24.055Z,98639.84
2018-08-06T10:55:52.147Z,98632.42
2018-08-06T10:58:20.228Z,98640.61
2018-08-06T11:00:48.328Z,98633.95
2018-08-06T11:03:16.433Z,98631.33
2018-08-06T11:05:44.542Z,98623.41
2018-08-06T11:08:12.635Z,98624.00
2018-08-06T11:10:40.745Z,98621.86
2018-08-06T11:13:08.904Z,98616.04
2018-08-06T11:15:37.006Z,98613.13
2018-08-06T11:18:05.281Z,98611.96
2018-08-06T11:20:33.424Z,98606.92
2018-08-06T11:23:01.480Z,98605.45
2018-08-06T11:25:29.572Z,98605.20
2018-08-06T11:27:57.688Z,98603.56
2018-08-06T11:30:26.695Z,98599.22
2018-08-06T11:32:55.057Z,98600.32
2018-08-06T11:35:23.139Z,98596.69
2018-08-06T11:37:51.763Z,98596.50
2018-08-06T11:40:19.887Z,98590.25
2018-08-06T11:42:48.566Z,98583.97
2018-08-06T11:45:18.906Z,98579.34
2018-08-06T11:47:47.039Z,98579.60
2018-08-06T11:50:15.148Z,98569.52
2018-08-06T11:52:43.251Z,98570.67
2018-08-06T11:55:11.396Z,98573.87
2018-08-06T11:57:39.531Z,98569.26
2018-08-06T12:00:11.724Z,98571.20
2018-08-06T12:02:39.810Z,98570.30
2018-08-06T12:05:07.948Z,98563.28
2018-08-06T12:07:36.236Z,98556.15
2018-08-06T12:10:06.286Z,98551.65
2018-08-06T12:12:34.355Z,98551.16
2018-08-06T12:15:02.446Z,98541.72
2018-08-06T12:17:30.548Z,98535.46
2018-08-06T12:19:58.632Z,98540.31
2018-08-06T12:22:26.723Z,98540.89
2018-08-06T12:24:54.813Z,98545.00
2018-08-06T12:27:22.980Z,98540.69
2018-08-06T12:29:51.009Z,98534.97
2018-08-06T12:32:19.108Z,98533.58
2018-08-06T12:34:47.197Z,98533.88
2018-08-06T12:37:15.311Z,98533.04
2018-08-06T12:39:43.433Z,98529.94
2018-08-06T12:42:11.539Z,98521.33
2018-08-06T12:44:39.627Z,98530.75
2018-08-06T12:47:07.737Z,98518.53
2018-08-06T12:49:35.827Z,98523.72
2018-08-06T12:52:03.920Z,98516.95
2018-08-06T12:54:32.019Z,98517.48
2018-08-06T12:57:00.308Z,98509.09
2018-08-06T12:59:28.360Z,98510.72
2018-08-06T13:01:56.481Z,98500.92
2018-08-06T13:04:24.563Z,98490.50
2018-08-06T13:06:52.729Z,98490.38
2018-08-06T13:09:20.811Z,98486.38
2018-08-06T13:11:48.907Z,98484.81
2018-08-06T13:14:16.995Z,98475.80
2018-08-06T13:16:45.115Z,98474.81
2018-08-06T13:19:13.221Z,98475.49
2018-08-06T13:21:41.363Z,98467.52
2018-08-06T13:24:09.469Z,98474.83
2018-08-06T13:26:37.572Z,98468.14
2018-08-06T13:29:06.135Z,98460.86
2018-08-06T13:31:34.206Z,98455.98
2018-08-06T13:34:02.340Z,98452.81
2018-08-06T13:36:30.459Z,98453.46
2018-08-06T13:38:58.551Z,98455.90
2018-08-06T13:41:26.647Z,98448.50
2018-08-06T13:43:54.734Z,98443.12
2018-08-06T13:46:22.822Z,98442.62
2018-08-06T13:48:50.934Z,98437.83
2018-08-06T13:51:19.018Z,98430.78
2018-08-06T13:53:47.116Z,98433.22
2018-08-06T13:56:15.199Z,98431.01
2018-08-06T13:58:44.137Z,98426.61
2018-08-06T14:01:12.232Z,98425.07
2018-08-06T14:03:40.347Z,98416.47
2018-08-06T14:06:08.687Z,98413.06
2018-08-06T14:08:36.777Z,98415.66
2018-08-06T14:11:04.867Z,98416.66
2018-08-06T14:13:32.964Z,98416.75
2018-08-06T14:16:01.044Z,98417.28
2018-08-06T14:18:29.148Z,98416.23
2018-08-06T14:20:57.226Z,98410.13
2018-08-06T14:23:25.332Z,98409.55
2018-08-06T14:25:53.461Z,98405.26
2018-08-06T14:28:21.560Z,98397.91
2018-08-06T14:30:49.659Z,98392.98
2018-08-06T14:33:18.656Z,98394.92
2018-08-06T14:35:46.759Z,98384.60
2018-08-06T14:38:14.888Z,98377.05
2018-08-06T14:40:42.965Z,98381.72
2018-08-06T14:43:11.076Z,98370.41
2018-08-06T14:45:39.163Z,98368.91
2018-08-06T14:48:07.321Z,98369.45
2018-08-06T14:50:36.005Z,98362.04
2018-08-06T14:53:04.125Z,98360.04
2018-08-06T14:55:32.504Z,98360.27
2018-08-06T14:58:00.589Z,98362.34
2018-08-06T15:00:28.664Z,98361.41
2018-08-06T15:02:56.775Z,98357.36
2018-08-06T15:05:24.892Z,98355.70
2018-08-06T15:07:52.984Z,98358.08
2018-08-06T15:10:21.081Z,98357.41
2018-08-06T15:12:49.195Z,98358.06
2018-08-06T15:15:18.168Z,98352.61
2018-08-06T15:17:46.643Z,98355.22
2018-08-06T15:20:16.043Z,98355.94
2018-08-06T15:22:44.439Z,98350.36
2018-08-06T15:25:15.170Z,98348.87
2018-08-06T15:27:43.523Z,98344.83
2018-08-06T15:30:11.813Z,98350.61
2018-08-06T15:32:40.572Z,98342.34
2018-08-06T15:35:12.560Z,98341.03
2018-08-06T15:37:41.338Z,98341.45
2018-08-06T15:40:15.644Z,98338.78
2018-08-06T15:42:43.777Z,98335.70
2018-08-06T15:45:12.645Z,98332.01
2018-08-06T15:47:42.139Z,98334.43
2018-08-06T15:50:15.647Z,98334.13
2018-08-06T15:52:43.836Z,98324.63
2018-08-06T15:55:11.948Z,98323.05
2018-08-06T15:57:40.034Z,98322.22
2018-08-06T16:00:14.896Z,98321.92
2018-08-06T16:02:43.279Z,98312.82
2018-08-06T16:05:11.713Z,98310.60
2018-08-06T16:07:40.311Z,98314.86
2018-08-06T16:10:10.042Z,98307.95
2018-08-06T16:12:38.233Z,98316.17
2018-08-06T16:15:08.160Z,98309.47
2018-08-06T16:17:36.375Z,98309.34
2018-08-06T16:20:06.547Z,98305.25
2018-08-06T16:22:34.633Z,98308.32
2018-08-06T16:25:03.094Z,98309.60
2018-08-06T16:27:31.147Z,98305.08
2018-08-06T16:29:59.257Z,98307.09
2018-08-06T16:32:27.359Z,98302.53
2018-08-06T16:34:55.454Z,98296.84
2018-08-06T16:37:23.548Z,98290.59
2018-08-06T16:39:52.444Z,98298.07
2018-08-06T16:42:20.524Z,98293.31
2018-08-06T16:44:48.684Z,98292.25
2018-08-06T16:47:16.774Z,98288.53
2018-08-06T16:49:44.899Z,98291.01
2018-08-06T16:52:12.998Z,98290.66
2018-08-06T16:54:41.087Z,98286.63
2018-08-06T16:57:09.467Z,98286.27
2018-08-06T16:59:37.555Z,98285.78
2018-08-06T17:02:05.668Z,98279.34
2018-08-06T17:04:33.789Z,98280.40
2018-08-06T17:07:01.921Z,98278.48
2018-08-06T17:09:30.008Z,98274.86
2018-08-06T17:12:02.659Z,98279.67
2018-08-06T17:14:35.818Z,98273.89
2018-08-06T17:17:08.143Z,98277.63
2018-08-06T17:19:40.714Z,98279.81
2018-08-06T17:22:17.912Z,98279.77
2018-08-06T17:24:50.713Z,98279.29
2018-08-06T17:27:34.039Z,98279.05
2018-08-06T17:30:07.813Z,98280.06
2018-08-06T17:32:40.371Z,98278.95
2018-08-06T17:35:15.489Z,98280.45
2018-08-06T17:37:48.399Z,98287.65
2018-08-06T17:40:21.790Z,98279.67
2018-08-06T17:42:53.349Z,98282.00
2018-08-06T17:45:25.768Z,98289.13
2018-08-06T17:47:57.963Z,98292.97
2018-08-06T17:50:31.942Z,98288.69
2018-08-06T17:53:04.197Z,98293.34
2018-08-06T17:55:36.325Z,98297.16
2018-08-06T17:58:09.109Z,98300.48
2018-08-06T18:01:02.091Z,98295.33
2018-08-06T18:03:33.818Z,98294.22
2018-08-06T18:06:05.781Z,98297.52
2018-08-06T18:08:53.388Z,98299.69
2018-08-06T18:11:27.376Z,98306.22
2018-08-06T18:14:08.938Z,98310.27
2018-08-06T18:16:41.693Z,98310.52
2018-08-06T18:19:13.551Z,98309.41
2018-08-06T18:21:44.229Z,98309.37
2018-08-06T18:24:16.640Z,98311.53
2018-08-06T18:26:48.971Z,98317.72
2018-08-06T18:29:20.823Z,98314.95
2018-08-06T18:31:52.937Z,98311.63
2018-08-06T18:34:41.481Z,98315.92
2018-08-06T18:37:14.521Z,98320.31
2018-08-06T18:39:46.753Z,98318.96
2018-08-06T18:42:19.087Z,98311.59
2018-08-06T18:44:51.416Z,98311.00
2018-08-06T18:47:23.657Z,98313.14
2018-08-06T18:49:56.058Z,98309.25
2018-08-06T18:52:24.180Z,98312.12
2018-08-06T18:54:52.283Z,98307.47
2018-08-06T18:57:20.445Z,98310.69
2018-08-06T18:59:48.533Z,98310.69
2018-08-06T19:02:16.648Z,98316.53
2018-08-06T19:04:45.628Z,98325.60
2018-08-06T19:07:13.739Z,98329.53
2018-08-06T19:09:42.096Z,98329.75
2018-08-06T19:14:21.740Z,98332.39
2018-08-06T19:16:51.132Z,98328.55
2018-08-06T19:19:22.142Z,98333.11
2018-08-06T19:21:51.163Z,98334.69
2018-08-06T19:24:24.663Z,98337.77
2018-08-06T19:26:52.768Z,98338.23
2018-08-06T19:29:20.956Z,98338.94
2018-08-06T19:31:49.058Z,98340.67
2018-08-06T19:34:17.205Z,98346.73
2018-08-06T19:36:50.602Z,98353.39
2018-08-06T19:39:18.952Z,98361.01
2018-08-06T19:41:47.196Z,98359.69
2018-08-06T19:44:15.299Z,98364.66
2018-08-06T19:46:44.356Z,98367.30
2018-08-06T19:49:17.978Z,98368.61
2018-08-06T19:51:46.083Z,98372.72
2018-08-06T19:54:14.506Z,98371.29
2018-08-06T19:56:42.784Z,98372.70
2018-08-06T19:59:11.392Z,98374.76
2018-08-06T20:01:39.441Z,98367.92
2018-08-06T20:04:08.164Z,98367.78
2018-08-06T20:06:36.335Z,98361.67
2018-08-06T20:09:08.106Z,98361.52
2018-08-06T20:11:36.471Z,98367.48
2018-08-06T20:14:06.951Z,98364.52
2018-08-06T20:16:35.047Z,98363.16
2018-08-06T20:19:03.564Z,98364.45
2018-08-06T20:21:31.655Z,98359.21
2018-08-06T20:23:59.751Z,98357.06
2018-08-06T20:26:27.842Z,98362.46
2018-08-06T20:28:55.955Z,98366.02
2018-08-06T20:31:24.062Z,98361.47
2018-08-06T20:33:52.172Z,98368.54
2018-08-06T20:36:20.281Z,98362.89
2018-08-06T20:38:48.379Z,98362.36
2018-08-06T20:41:16.755Z,98367.10
2018-08-06T20:43:46.203Z,98361.70
2018-08-06T20:46:14.297Z,98372.30
2018-08-06T20:48:42.433Z,98373.92
2018-08-06T20:51:17.446Z,98369.02
2018-08-06T20:53:46.204Z,98374.76
2018-08-06T20:56:14.288Z,98375.59
2018-08-06T20:58:42.626Z,98378.28
2018-08-06T21:01:10.803Z,98381.29
2018-08-06T21:03:38.905Z,98385.16
2018-08-06T21:06:06.987Z,98391.24
2018-08-06T21:08:35.113Z,98388.53
2018-08-06T21:11:03.210Z,98389.88
2018-08-06T21:13:31.302Z,98398.75
2018-08-06T21:15:59.390Z,98392.88
2018-08-06T21:18:27.775Z,98403.59
2018-08-06T21:20:55.871Z,98405.80
2018-08-06T21:23:23.984Z,98398.23
2018-08-06T21:25:52.063Z,98405.96
2018-08-06T21:28:20.192Z,98405.28
2018-08-06T21:30:48.274Z,98405.25
2018-08-06T21:33:17.311Z,98404.78
2018-08-06T21:35:45.418Z,98411.23
2018-08-06T21:38:13.502Z,98408.55
2018-08-06T21:40:41.587Z,98408.54
2018-08-06T21:43:09.695Z,98408.78
2018-08-06T21:45:37.856Z,98408.23
2018-08-06T21:48:05.917Z,98410.41
2018-08-06T22:02:39.479Z,98392.59
2018-08-06T22:05:07.965Z,98391.00
2018-08-06T22:07:36.059Z,98390.82
2018-08-06T22:10:04.563Z,98392.08
2018-08-06T22:12:32.974Z,98397.45
2018-08-06T22:15:01.077Z,98393.73
2018-08-06T22:17:29.175Z,98386.13
2018-08-06T22:19:57.276Z,98387.14
2018-08-06T22:22:25.377Z,98383.85
2018-08-06T22:24:53.520Z,98383.13
2018-08-06T22:27:21.607Z,98384.11
2018-08-06T22:29:49.752Z,98376.78
2018-08-06T22:32:17.842Z,98373.88
2018-08-06T22:34:45.961Z,98374.50
2018-08-06T22:37:14.043Z,98370.48
2018-08-06T22:39:42.156Z,98368.09
2018-08-06T22:42:10.253Z,98365.91
2018-08-06T22:44:38.365Z,98362.63
2018-08-06T22:47:06.625Z,98361.00
2018-08-06T22:49:34.725Z,98352.93
2018-08-06T22:52:02.804Z,98355.91
2018-08-06T22:54:30.898Z,98356.81
2018-08-06T22:56:58.992Z,98361.41
2018-08-06T22:59:27.086Z,98356.92
2018-08-06T23:01:55.217Z,98353.80
2018-08-06T23:04:23.291Z,98358.03
2018-08-06T23:06:51.375Z,98359.09
2018-08-06T23:09:20.241Z,98353.63
2018-08-06T23:11:48.333Z,98358.03
2018-08-06T23:14:16.449Z,98347.03
2018-08-06T23:16:44.577Z,98352.40
2018-08-06T23:19:12.661Z,98349.44
2018-08-06T23:21:40.775Z,98346.42
2018-08-06T23:24:08.879Z,98349.53
2018-08-06T23:26:37.300Z,98349.94
2018-08-06T23:29:05.386Z,98350.95
2018-08-06T23:31:33.480Z,98342.48
2018-08-06T23:34:01.582Z,98342.56
2018-08-06T23:36:30.619Z,98340.89
2018-08-06T23:38:58.723Z,98336.91
2018-08-06T23:41:26.834Z,98343.53
2018-08-06T23:43:54.943Z,98341.42
2018-08-06T23:46:23.103Z,98340.20
2018-08-06T23:48:51.769Z,98332.63
2018-08-06T23:51:19.868Z,98335.80
2018-08-06T23:53:47.956Z,98330.87
2018-08-06T23:56:16.796Z,98339.92
2018-08-06T23:58:44.904Z,98333.11
